sensor_id;sensor_type;location;lat;lon;timestamp;temperature;humidity
12959;DHT22;6544;51.666;6.634;2023-03-01T00:01:28;2.00;1.00
12959;DHT22;6544;51.666;6.634;2023-03-01T00:03:56;2.00;1.00
12959;DHT22;6544;51.666;6.634;2023-03-01T00:06:23;1.90;1.00
12959;DHT22;6544;51.666;6.634;2023-03-01T00:08:50;1.90;1.00
12959;DHT22;6544;51.666;6.634;2023-03-01T00:11:20;2.00;1.00
12959;DHT22;6544;51.666;6.634;2023-03-01T00:13:51;2.10;1.00
12959;DHT22;6544;51.666;6.634;2023-03-01T00:16:19;2.10;1.00
12959;DHT22;6544;51.666;6.634;2023-03-01T00:18:47;2.20;1.00
12959;DHT22;6544;51.666;6.634;2023-03-01T00:21:14;2.10;1.00
12959;DHT22;6544;51.666;6.634;2023-03-01T00:23:41;2.10;1.00
12959;DHT22;6544;51.666;6.634;2023-03-01T00:26:09;2.20;1.00
12959;DHT22;6544;51.666;6.634;2023-03-01T00:28:36;2.00;1.00
12959;DHT22;6544;51.666;6.634;2023-03-01T00:31:06;2.10;1.00
12959;DHT22;6544;51.666;6.634;2023-03-01T00:33:33;2.10;1.00
12959;DHT22;6544;51.666;6.634;2023-03-01T00:36:00;2.00;1.00
12959;DHT22;6544;51.666;6.634;2023-03-01T00:38:33;1.90;1.00
12959;DHT22;6544;51.666;6.634;2023-03-01T00:41:03;2.00;1.00
12959;DHT22;6544;51.666;6.634;2023-03-01T00:43:30;2.00;1.00
12959;DHT22;6544;51.666;6.634;2023-03-01T00:46:02;2.00;1.00
12959;DHT22;6544;51.666;6.634;2023-03-01T00:48:30;2.10;1.00
12959;DHT22;6544;51.666;6.634;2023-03-01T00:50:57;2.00;1.00
12959;DHT22;6544;51.666;6.634;2023-03-01T00:53:30;1.80;1.00
12959;DHT22;6544;51.666;6.634;2023-03-01T00:55:57;1.70;1.00
12959;DHT22;6544;51.666;6.634;2023-03-01T00:58:24;1.70;1.00
12959;DHT22;6544;51.666;6.634;2023-03-01T01:00:51;1.60;1.00
12959;DHT22;6544;51.666;6.634;2023-03-01T01:03:18;1.80;1.00
12959;DHT22;6544;51.666;6.634;2023-03-01T01:05:47;1.70;1.00
12959;DHT22;6544;51.666;6.634;2023-03-01T01:08:14;1.70;1.00
12959;DHT22;6544;51.666;6.634;2023-03-01T01:10:43;1.80;1.00
12959;DHT22;6544;51.666;6.634;2023-03-01T01:13:10;1.70;1.00
12959;DHT22;6544;51.666;6.634;2023-03-01T01:15:37;1.80;1.00
12959;DHT22;6544;51.666;6.634;2023-03-01T01:18:04;1.70;1.00
12959;DHT22;6544;51.666;6.634;2023-03-01T01:20:31;1.80;1.00
12959;DHT22;6544;51.666;6.634;2023-03-01T01:22:59;1.70;1.00
12959;DHT22;6544;51.666;6.634;2023-03-01T01:25:26;1.70;1.00
12959;DHT22;6544;51.666;6.634;2023-03-01T01:27:53;1.70;1.00
12959;DHT22;6544;51.666;6.634;2023-03-01T01:30:20;1.70;1.00
12959;DHT22;6544;51.666;6.634;2023-03-01T01:32:47;1.60;1.00
12959;DHT22;6544;51.666;6.634;2023-03-01T01:35:14;1.60;1.00
12959;DHT22;6544;51.666;6.634;2023-03-01T01:37:41;1.60;1.00
12959;DHT22;6544;51.666;6.634;2023-03-01T01:40:11;1.60;1.00
12959;DHT22;6544;51.666;6.634;2023-03-01T01:42:38;1.40;1.00
12959;DHT22;6544;51.666;6.634;2023-03-01T01:45:28;1.40;1.00
12959;DHT22;6544;51.666;6.634;2023-03-01T01:47:58;1.30;1.00
12959;DHT22;6544;51.666;6.634;2023-03-01T01:50:26;1.30;1.00
12959;DHT22;6544;51.666;6.634;2023-03-01T01:53:06;1.30;1.00
12959;DHT22;6544;51.666;6.634;2023-03-01T01:55:37;1.30;1.00
12959;DHT22;6544;51.666;6.634;2023-03-01T01:58:08;1.30;1.00
12959;DHT22;6544;51.666;6.634;2023-03-01T02:00:37;1.40;1.00
12959;DHT22;6544;51.666;6.634;2023-03-01T02:03:10;1.40;1.00
12959;DHT22;6544;51.666;6.634;2023-03-01T02:05:42;1.20;1.00
12959;DHT22;6544;51.666;6.634;2023-03-01T02:08:12;1.30;1.00
12959;DHT22;6544;51.666;6.634;2023-03-01T02:10:41;1.20;1.00
12959;DHT22;6544;51.666;6.634;2023-03-01T02:13:08;1.10;1.00
12959;DHT22;6544;51.666;6.634;2023-03-01T02:15:37;1.10;1.00
12959;DHT22;6544;51.666;6.634;2023-03-01T02:18:05;0.90;1.00
12959;DHT22;6544;51.666;6.634;2023-03-01T02:20:35;0.90;1.00
12959;DHT22;6544;51.666;6.634;2023-03-01T02:23:04;1.10;1.00
12959;DHT22;6544;51.666;6.634;2023-03-01T02:25:41;0.80;1.00
12959;DHT22;6544;51.666;6.634;2023-03-01T02:28:25;0.90;1.00
12959;DHT22;6544;51.666;6.634;2023-03-01T02:30:53;0.90;1.00
12959;DHT22;6544;51.666;6.634;2023-03-01T02:33:39;1.00;1.00
12959;DHT22;6544;51.666;6.634;2023-03-01T02:36:10;1.00;1.00
12959;DHT22;6544;51.666;6.634;2023-03-01T02:38:39;0.90;1.00
12959;DHT22;6544;51.666;6.634;2023-03-01T02:41:07;0.90;1.00
12959;DHT22;6544;51.666;6.634;2023-03-01T02:43:36;0.80;1.00
12959;DHT22;6544;51.666;6.634;2023-03-01T02:46:08;0.70;1.00
12959;DHT22;6544;51.666;6.634;2023-03-01T02:48:43;0.80;1.00
12959;DHT22;6544;51.666;6.634;2023-03-01T02:51:22;0.80;1.00
12959;DHT22;6544;51.666;6.634;2023-03-01T02:53:58;0.80;1.00
12959;DHT22;6544;51.666;6.634;2023-03-01T02:56:28;0.80;1.00
12959;DHT22;6544;51.666;6.634;2023-03-01T02:58:57;0.80;1.00
12959;DHT22;6544;51.666;6.634;2023-03-01T03:01:26;0.90;1.00
12959;DHT22;6544;51.666;6.634;2023-03-01T03:04:02;1.00;1.00
12959;DHT22;6544;51.666;6.634;2023-03-01T03:06:29;1.00;1.00
12959;DHT22;6544;51.666;6.634;2023-03-01T03:08:56;0.90;1.00
12959;DHT22;6544;51.666;6.634;2023-03-01T03:11:23;0.80;1.00
12959;DHT22;6544;51.666;6.634;2023-03-01T03:13:50;0.80;1.00
12959;DHT22;6544;51.666;6.634;2023-03-01T03:16:19;0.90;1.00
12959;DHT22;6544;51.666;6.634;2023-03-01T03:18:46;0.90;1.00
12959;DHT22;6544;51.666;6.634;2023-03-01T03:21:14;1.00;1.00
12959;DHT22;6544;51.666;6.634;2023-03-01T03:23:41;0.90;1.00
12959;DHT22;6544;51.666;6.634;2023-03-01T03:26:08;0.90;1.00
12959;DHT22;6544;51.666;6.634;2023-03-01T03:28:39;0.90;1.00
12959;DHT22;6544;51.666;6.634;2023-03-01T03:31:06;0.80;1.00
12959;DHT22;6544;51.666;6.634;2023-03-01T03:33:34;0.70;1.00
12959;DHT22;6544;51.666;6.634;2023-03-01T03:36:01;0.80;1.00
12959;DHT22;6544;51.666;6.634;2023-03-01T03:38:28;0.80;1.00
12959;DHT22;6544;51.666;6.634;2023-03-01T03:41:01;0.50;1.00
12959;DHT22;6544;51.666;6.634;2023-03-01T03:43:30;0.30;1.00
12959;DHT22;6544;51.666;6.634;2023-03-01T03:45:58;0.50;1.00
12959;DHT22;6544;51.666;6.634;2023-03-01T03:48:25;0.60;1.00
12959;DHT22;6544;51.666;6.634;2023-03-01T03:50:55;0.60;1.00
12959;DHT22;6544;51.666;6.634;2023-03-01T03:53:24;0.60;1.00
12959;DHT22;6544;51.666;6.634;2023-03-01T03:55:52;0.70;1.00
12959;DHT22;6544;51.666;6.634;2023-03-01T03:58:21;0.80;1.00
12959;DHT22;6544;51.666;6.634;2023-03-01T04:00:50;0.60;1.00
12959;DHT22;6544;51.666;6.634;2023-03-01T04:03:19;0.70;1.00
12959;DHT22;6544;51.666;6.634;2023-03-01T04:05:46;0.60;1.00
12959;DHT22;6544;51.666;6.634;2023-03-01T04:08:17;0.70;1.00
12959;DHT22;6544;51.666;6.634;2023-03-01T04:10:47;0.70;1.00
12959;DHT22;6544;51.666;6.634;2023-03-01T04:13:16;0.70;1.00
12959;DHT22;6544;51.666;6.634;2023-03-01T04:15:45;0.50;1.00
12959;DHT22;6544;51.666;6.634;2023-03-01T04:18:14;0.50;1.00
12959;DHT22;6544;51.666;6.634;2023-03-01T04:20:42;0.50;1.00
12959;DHT22;6544;51.666;6.634;2023-03-01T04:23:12;0.40;1.00
12959;DHT22;6544;51.666;6.634;2023-03-01T04:25:45;0.30;1.00
12959;DHT22;6544;51.666;6.634;2023-03-01T04:28:15;0.30;1.00
12959;DHT22;6544;51.666;6.634;2023-03-01T04:30:42;0.40;1.00
12959;DHT22;6544;51.666;6.634;2023-03-01T04:33:10;0.50;1.00
12959;DHT22;6544;51.666;6.634;2023-03-01T04:35:37;0.50;1.00
12959;DHT22;6544;51.666;6.634;2023-03-01T04:38:06;0.60;1.00
12959;DHT22;6544;51.666;6.634;2023-03-01T04:40:34;0.50;1.00
12959;DHT22;6544;51.666;6.634;2023-03-01T04:43:03;0.50;1.00
12959;DHT22;6544;51.666;6.634;2023-03-01T04:45:32;0.50;1.00
12959;DHT22;6544;51.666;6.634;2023-03-01T04:48:00;0.50;1.00
12959;DHT22;6544;51.666;6.634;2023-03-01T04:50:27;0.50;1.00
12959;DHT22;6544;51.666;6.634;2023-03-01T04:52:53;0.30;1.00
12959;DHT22;6544;51.666;6.634;2023-03-01T04:55:24;0.30;1.00
12959;DHT22;6544;51.666;6.634;2023-03-01T04:57:51;0.40;1.00
12959;DHT22;6544;51.666;6.634;2023-03-01T05:00:20;0.30;1.00
12959;DHT22;6544;51.666;6.634;2023-03-01T05:02:48;0.40;1.00
12959;DHT22;6544;51.666;6.634;2023-03-01T05:05:20;0.40;1.00
12959;DHT22;6544;51.666;6.634;2023-03-01T05:07:51;0.30;1.00
12959;DHT22;6544;51.666;6.634;2023-03-01T05:10:18;0.30;1.00
12959;DHT22;6544;51.666;6.634;2023-03-01T05:12:47;0.30;1.00
12959;DHT22;6544;51.666;6.634;2023-03-01T05:15:14;0.40;1.00
12959;DHT22;6544;51.666;6.634;2023-03-01T05:17:42;0.40;1.00
12959;DHT22;6544;51.666;6.634;2023-03-01T05:20:10;0.40;1.00
12959;DHT22;6544;51.666;6.634;2023-03-01T05:22:37;0.30;1.00
12959;DHT22;6544;51.666;6.634;2023-03-01T05:25:05;0.20;1.00
12959;DHT22;6544;51.666;6.634;2023-03-01T05:27:33;0.30;1.00
12959;DHT22;6544;51.666;6.634;2023-03-01T05:30:00;0.40;1.00
12959;DHT22;6544;51.666;6.634;2023-03-01T05:32:39;0.40;1.00
12959;DHT22;6544;51.666;6.634;2023-03-01T05:35:08;0.50;1.00
12959;DHT22;6544;51.666;6.634;2023-03-01T05:37:39;0.40;1.00
12959;DHT22;6544;51.666;6.634;2023-03-01T05:40:06;0.30;1.00
12959;DHT22;6544;51.666;6.634;2023-03-01T05:42:42;0.30;1.00
12959;DHT22;6544;51.666;6.634;2023-03-01T05:45:09;0.30;1.00
12959;DHT22;6544;51.666;6.634;2023-03-01T05:47:38;0.20;1.00
12959;DHT22;6544;51.666;6.634;2023-03-01T05:50:05;0.20;1.00
12959;DHT22;6544;51.666;6.634;2023-03-01T05:52:34;0.10;1.00
12959;DHT22;6544;51.666;6.634;2023-03-01T05:55:01;0.10;1.00
12959;DHT22;6544;51.666;6.634;2023-03-01T05:57:28;0.10;1.00
12959;DHT22;6544;51.666;6.634;2023-03-01T05:59:55;0.10;1.00
12959;DHT22;6544;51.666;6.634;2023-03-01T06:02:22;0.10;1.00
12959;DHT22;6544;51.666;6.634;2023-03-01T06:04:49;0.10;1.00
12959;DHT22;6544;51.666;6.634;2023-03-01T06:07:16;0.10;1.00
12959;DHT22;6544;51.666;6.634;2023-03-01T06:09:44;0.20;1.00
12959;DHT22;6544;51.666;6.634;2023-03-01T06:12:11;0.10;1.00
12959;DHT22;6544;51.666;6.634;2023-03-01T06:14:38;0.10;1.00
12959;DHT22;6544;51.666;6.634;2023-03-01T06:17:04;0.20;1.00
12959;DHT22;6544;51.666;6.634;2023-03-01T06:19:31;0.20;1.00
12959;DHT22;6544;51.666;6.634;2023-03-01T06:21:58;0.20;1.00
12959;DHT22;6544;51.666;6.634;2023-03-01T06:24:25;0.20;1.00
12959;DHT22;6544;51.666;6.634;2023-03-01T06:26:55;0.20;1.00
12959;DHT22;6544;51.666;6.634;2023-03-01T06:29:22;0.30;1.00
12959;DHT22;6544;51.666;6.634;2023-03-01T06:31:49;0.10;1.00
12959;DHT22;6544;51.666;6.634;2023-03-01T06:34:16;0.00;1.00
12959;DHT22;6544;51.666;6.634;2023-03-01T06:36:43;-0.10;1.00
12959;DHT22;6544;51.666;6.634;2023-03-01T06:39:10;-0.20;1.00
12959;DHT22;6544;51.666;6.634;2023-03-01T06:41:37;-0.10;1.00
12959;DHT22;6544;51.666;6.634;2023-03-01T06:44:05;-0.20;1.00
12959;DHT22;6544;51.666;6.634;2023-03-01T06:46:32;-0.20;1.00
12959;DHT22;6544;51.666;6.634;2023-03-01T06:48:59;-0.60;1.00
12959;DHT22;6544;51.666;6.634;2023-03-01T06:51:26;-0.80;1.00
12959;DHT22;6544;51.666;6.634;2023-03-01T06:53:53;-0.50;1.00
12959;DHT22;6544;51.666;6.634;2023-03-01T06:56:19;-0.50;1.00
12959;DHT22;6544;51.666;6.634;2023-03-01T06:58:46;-0.40;1.00
12959;DHT22;6544;51.666;6.634;2023-03-01T07:01:14;-0.40;1.00
12959;DHT22;6544;51.666;6.634;2023-03-01T07:03:41;-0.20;1.00
12959;DHT22;6544;51.666;6.634;2023-03-01T07:06:09;-0.20;1.00
12959;DHT22;6544;51.666;6.634;2023-03-01T07:08:36;-0.20;1.00
12959;DHT22;6544;51.666;6.634;2023-03-01T07:11:03;-0.30;1.00
12959;DHT22;6544;51.666;6.634;2023-03-01T07:13:31;-0.50;1.00
12959;DHT22;6544;51.666;6.634;2023-03-01T07:15:58;-0.40;1.00
12959;DHT22;6544;51.666;6.634;2023-03-01T07:18:26;-0.20;1.00
12959;DHT22;6544;51.666;6.634;2023-03-01T07:20:53;-0.20;1.00
12959;DHT22;6544;51.666;6.634;2023-03-01T07:23:20;-0.20;1.00
12959;DHT22;6544;51.666;6.634;2023-03-01T07:25:51;-0.10;1.00
12959;DHT22;6544;51.666;6.634;2023-03-01T07:28:19;0.00;1.00
12959;DHT22;6544;51.666;6.634;2023-03-01T07:30:46;0.00;1.00
12959;DHT22;6544;51.666;6.634;2023-03-01T07:33:13;0.10;1.00
12959;DHT22;6544;51.666;6.634;2023-03-01T07:35:41;0.20;1.00
12959;DHT22;6544;51.666;6.634;2023-03-01T07:38:08;0.30;1.00
12959;DHT22;6544;51.666;6.634;2023-03-01T07:40:35;0.20;1.00
12959;DHT22;6544;51.666;6.634;2023-03-01T07:43:02;0.30;1.00
12959;DHT22;6544;51.666;6.634;2023-03-01T07:45:29;0.40;1.00
12959;DHT22;6544;51.666;6.634;2023-03-01T07:47:56;0.40;1.00
12959;DHT22;6544;51.666;6.634;2023-03-01T07:50:23;0.40;1.00
12959;DHT22;6544;51.666;6.634;2023-03-01T07:52:51;0.50;1.00
12959;DHT22;6544;51.666;6.634;2023-03-01T07:55:18;0.60;1.00
12959;DHT22;6544;51.666;6.634;2023-03-01T07:57:45;0.50;1.00
12959;DHT22;6544;51.666;6.634;2023-03-01T08:00:13;0.50;1.00
12959;DHT22;6544;51.666;6.634;2023-03-01T08:02:40;0.50;1.00
12959;DHT22;6544;51.666;6.634;2023-03-01T08:05:08;0.40;1.00
12959;DHT22;6544;51.666;6.634;2023-03-01T08:07:35;0.30;1.00
12959;DHT22;6544;51.666;6.634;2023-03-01T08:10:04;0.30;1.00
12959;DHT22;6544;51.666;6.634;2023-03-01T08:12:31;0.20;1.00
12959;DHT22;6544;51.666;6.634;2023-03-01T08:14:58;0.30;1.00
12959;DHT22;6544;51.666;6.634;2023-03-01T08:17:25;0.40;1.00
12959;DHT22;6544;51.666;6.634;2023-03-01T08:19:52;0.50;1.00
12959;DHT22;6544;51.666;6.634;2023-03-01T08:22:18;0.50;1.00
12959;DHT22;6544;51.666;6.634;2023-03-01T08:24:46;0.60;1.00
12959;DHT22;6544;51.666;6.634;2023-03-01T08:27:16;0.80;1.00
12959;DHT22;6544;51.666;6.634;2023-03-01T08:29:43;0.90;1.00
12959;DHT22;6544;51.666;6.634;2023-03-01T08:32:10;1.20;1.00
12959;DHT22;6544;51.666;6.634;2023-03-01T08:34:37;1.30;1.00
12959;DHT22;6544;51.666;6.634;2023-03-01T08:37:04;1.50;1.00
12959;DHT22;6544;51.666;6.634;2023-03-01T08:39:31;1.60;1.00
12959;DHT22;6544;51.666;6.634;2023-03-01T08:41:58;1.80;1.00
12959;DHT22;6544;51.666;6.634;2023-03-01T08:44:26;1.90;1.00
12959;DHT22;6544;51.666;6.634;2023-03-01T08:46:53;2.00;1.00
12959;DHT22;6544;51.666;6.634;2023-03-01T08:49:21;2.10;1.00
12959;DHT22;6544;51.666;6.634;2023-03-01T08:51:49;2.20;1.00
12959;DHT22;6544;51.666;6.634;2023-03-01T08:54:18;2.30;1.00
12959;DHT22;6544;51.666;6.634;2023-03-01T08:56:46;2.50;1.00
12959;DHT22;6544;51.666;6.634;2023-03-01T08:59:14;2.60;1.00
12959;DHT22;6544;51.666;6.634;2023-03-01T09:01:44;2.70;1.00
12959;DHT22;6544;51.666;6.634;2023-03-01T09:04:11;2.80;1.00
12959;DHT22;6544;51.666;6.634;2023-03-01T09:06:38;2.90;1.00
12959;DHT22;6544;51.666;6.634;2023-03-01T09:09:05;3.00;1.00
12959;DHT22;6544;51.666;6.634;2023-03-01T09:11:34;3.10;1.00
12959;DHT22;6544;51.666;6.634;2023-03-01T09:14:05;3.10;1.00
12959;DHT22;6544;51.666;6.634;2023-03-01T09:16:32;3.20;1.00
12959;DHT22;6544;51.666;6.634;2023-03-01T09:19:03;3.30;1.00
12959;DHT22;6544;51.666;6.634;2023-03-01T09:21:30;3.40;1.00
12959;DHT22;6544;51.666;6.634;2023-03-01T09:23:57;3.50;1.00
12959;DHT22;6544;51.666;6.634;2023-03-01T09:26:25;3.50;1.00
12959;DHT22;6544;51.666;6.634;2023-03-01T09:28:54;3.70;1.00
12959;DHT22;6544;51.666;6.634;2023-03-01T09:31:23;3.80;1.00
12959;DHT22;6544;51.666;6.634;2023-03-01T09:33:52;3.80;1.00
12959;DHT22;6544;51.666;6.634;2023-03-01T09:36:22;3.90;1.00
12959;DHT22;6544;51.666;6.634;2023-03-01T09:38:49;3.90;1.00
12959;DHT22;6544;51.666;6.634;2023-03-01T09:41:44;4.00;1.00
12959;DHT22;6544;51.666;6.634;2023-03-01T09:44:18;4.10;1.00
12959;DHT22;6544;51.666;6.634;2023-03-01T09:46:47;4.20;1.00
12959;DHT22;6544;51.666;6.634;2023-03-01T09:49:17;4.30;1.00
12959;DHT22;6544;51.666;6.634;2023-03-01T09:51:55;4.40;1.00
12959;DHT22;6544;51.666;6.634;2023-03-01T09:54:22;4.40;1.00
12959;DHT22;6544;51.666;6.634;2023-03-01T09:57:11;4.40;1.00
12959;DHT22;6544;51.666;6.634;2023-03-01T09:59:55;4.50;1.00
12959;DHT22;6544;51.666;6.634;2023-03-01T10:02:30;4.60;1.00
12959;DHT22;6544;51.666;6.634;2023-03-01T10:05:10;4.80;1.00
12959;DHT22;6544;51.666;6.634;2023-03-01T10:07:47;4.70;1.00
12959;DHT22;6544;51.666;6.634;2023-03-01T10:10:23;4.80;1.00
12959;DHT22;6544;51.666;6.634;2023-03-01T10:12:56;4.90;1.00
12959;DHT22;6544;51.666;6.634;2023-03-01T10:15:32;5.00;1.00
12959;DHT22;6544;51.666;6.634;2023-03-01T10:18:02;5.10;1.00
12959;DHT22;6544;51.666;6.634;2023-03-01T10:20:41;5.10;1.00
12959;DHT22;6544;51.666;6.634;2023-03-01T10:23:10;5.30;1.00
12959;DHT22;6544;51.666;6.634;2023-03-01T10:25:47;5.40;1.00
12959;DHT22;6544;51.666;6.634;2023-03-01T10:28:19;5.50;1.00
12959;DHT22;6544;51.666;6.634;2023-03-01T10:30:47;5.60;1.00
12959;DHT22;6544;51.666;6.634;2023-03-01T10:33:18;5.70;1.00
12959;DHT22;6544;51.666;6.634;2023-03-01T10:35:46;5.80;1.00
12959;DHT22;6544;51.666;6.634;2023-03-01T10:38:16;5.90;1.00
12959;DHT22;6544;51.666;6.634;2023-03-01T10:40:55;6.10;1.00
12959;DHT22;6544;51.666;6.634;2023-03-01T10:43:24;6.20;1.00
12959;DHT22;6544;51.666;6.634;2023-03-01T10:45:52;6.40;1.00
12959;DHT22;6544;51.666;6.634;2023-03-01T10:48:20;6.50;1.00
12959;DHT22;6544;51.666;6.634;2023-03-01T10:51:04;6.60;1.00
12959;DHT22;6544;51.666;6.634;2023-03-01T10:53:34;6.70;1.00
12959;DHT22;6544;51.666;6.634;2023-03-01T10:56:04;6.80;1.00
12959;DHT22;6544;51.666;6.634;2023-03-01T10:58:32;6.80;1.00
12959;DHT22;6544;51.666;6.634;2023-03-01T11:01:02;6.90;1.00
12959;DHT22;6544;51.666;6.634;2023-03-01T11:03:31;7.10;1.00
12959;DHT22;6544;51.666;6.634;2023-03-01T11:06:04;7.20;1.00
12959;DHT22;6544;51.666;6.634;2023-03-01T11:08:40;7.30;1.00
12959;DHT22;6544;51.666;6.634;2023-03-01T11:11:19;7.30;99.90
12959;DHT22;6544;51.666;6.634;2023-03-01T11:13:57;7.20;99.90
12959;DHT22;6544;51.666;6.634;2023-03-01T11:16:28;7.30;99.90
12959;DHT22;6544;51.666;6.634;2023-03-01T11:19:01;7.50;99.90
12959;DHT22;6544;51.666;6.634;2023-03-01T11:21:33;7.60;99.90
12959;DHT22;6544;51.666;6.634;2023-03-01T11:24:04;7.70;99.90
12959;DHT22;6544;51.666;6.634;2023-03-01T11:26:35;7.90;99.90
12959;DHT22;6544;51.666;6.634;2023-03-01T11:29:13;8.00;99.90
12959;DHT22;6544;51.666;6.634;2023-03-01T11:31:43;7.90;99.90
12959;DHT22;6544;51.666;6.634;2023-03-01T11:34:16;7.90;99.90
12959;DHT22;6544;51.666;6.634;2023-03-01T11:36:49;8.20;99.90
12959;DHT22;6544;51.666;6.634;2023-03-01T11:39:25;8.40;99.90
12959;DHT22;6544;51.666;6.634;2023-03-01T11:42:02;8.60;99.90
12959;DHT22;6544;51.666;6.634;2023-03-01T11:44:33;8.80;99.90
12959;DHT22;6544;51.666;6.634;2023-03-01T11:47:20;8.60;99.90
12959;DHT22;6544;51.666;6.634;2023-03-01T11:50:06;8.60;99.90
12959;DHT22;6544;51.666;6.634;2023-03-01T11:52:46;8.80;99.90
12959;DHT22;6544;51.666;6.634;2023-03-01T11:55:26;9.20;99.90
12959;DHT22;6544;51.666;6.634;2023-03-01T11:58:11;9.20;99.90
12959;DHT22;6544;51.666;6.634;2023-03-01T12:00:51;9.20;99.90
12959;DHT22;6544;51.666;6.634;2023-03-01T12:03:27;8.80;99.90
12959;DHT22;6544;51.666;6.634;2023-03-01T12:08:56;8.10;99.90
12959;DHT22;6544;51.666;6.634;2023-03-01T12:11:39;8.10;99.90
12959;DHT22;6544;51.666;6.634;2023-03-01T12:14:30;8.00;99.90
12959;DHT22;6544;51.666;6.634;2023-03-01T12:20:20;8.60;99.90
12959;DHT22;6544;51.666;6.634;2023-03-01T12:23:14;9.20;99.90
12959;DHT22;6544;51.666;6.634;2023-03-01T12:25:47;9.20;99.90
12959;DHT22;6544;51.666;6.634;2023-03-01T12:31:43;8.60;99.90
12959;DHT22;6544;51.666;6.634;2023-03-01T12:34:27;8.70;99.90
12959;DHT22;6544;51.666;6.634;2023-03-01T12:37:15;8.50;99.90
12959;DHT22;6544;51.666;6.634;2023-03-01T12:39:55;8.50;99.90
12959;DHT22;6544;51.666;6.634;2023-03-01T12:42:31;8.40;99.90
12959;DHT22;6544;51.666;6.634;2023-03-01T12:45:26;7.80;99.90
12959;DHT22;6544;51.666;6.634;2023-03-01T12:48:14;7.80;99.90
12959;DHT22;6544;51.666;6.634;2023-03-01T12:50:47;8.00;99.90
12959;DHT22;6544;51.666;6.634;2023-03-01T12:53:22;8.40;99.90
12959;DHT22;6544;51.666;6.634;2023-03-01T12:55:50;8.70;99.90
12959;DHT22;6544;51.666;6.634;2023-03-01T12:58:24;8.80;99.90
12959;DHT22;6544;51.666;6.634;2023-03-01T13:01:08;8.80;99.90
12959;DHT22;6544;51.666;6.634;2023-03-01T13:04:07;8.30;99.90
12959;DHT22;6544;51.666;6.634;2023-03-01T13:06:41;8.30;99.90
12959;DHT22;6544;51.666;6.634;2023-03-01T13:09:18;8.30;99.90
12959;DHT22;6544;51.666;6.634;2023-03-01T13:11:46;8.50;99.90
12959;DHT22;6544;51.666;6.634;2023-03-01T13:14:45;8.30;99.90
12959;DHT22;6544;51.666;6.634;2023-03-01T13:17:33;8.00;99.90
12959;DHT22;6544;51.666;6.634;2023-03-01T13:20:14;8.40;99.90
12959;DHT22;6544;51.666;6.634;2023-03-01T13:22:41;8.70;99.90
12959;DHT22;6544;51.666;6.634;2023-03-01T13:25:14;8.40;99.90
12959;DHT22;6544;51.666;6.634;2023-03-01T13:27:42;8.10;99.90
12959;DHT22;6544;51.666;6.634;2023-03-01T13:30:42;8.30;99.90
12959;DHT22;6544;51.666;6.634;2023-03-01T13:33:40;8.30;99.90
12959;DHT22;6544;51.666;6.634;2023-03-01T13:36:10;8.00;99.90
12959;DHT22;6544;51.666;6.634;2023-03-01T13:38:47;8.40;99.90
12959;DHT22;6544;51.666;6.634;2023-03-01T13:41:16;7.90;99.90
12959;DHT22;6544;51.666;6.634;2023-03-01T13:43:45;8.10;99.90
12959;DHT22;6544;51.666;6.634;2023-03-01T13:46:17;8.40;99.90
12959;DHT22;6544;51.666;6.634;2023-03-01T13:48:45;8.40;99.90
12959;DHT22;6544;51.666;6.634;2023-03-01T13:51:15;8.20;99.90
12959;DHT22;6544;51.666;6.634;2023-03-01T13:53:47;8.30;99.90
12959;DHT22;6544;51.666;6.634;2023-03-01T13:56:16;8.10;99.90
12959;DHT22;6544;51.666;6.634;2023-03-01T13:58:48;8.10;99.90
12959;DHT22;6544;51.666;6.634;2023-03-01T14:01:23;8.10;99.90
12959;DHT22;6544;51.666;6.634;2023-03-01T14:03:50;8.20;99.90
12959;DHT22;6544;51.666;6.634;2023-03-01T14:06:21;8.30;99.90
12959;DHT22;6544;51.666;6.634;2023-03-01T14:08:51;8.20;99.90
12959;DHT22;6544;51.666;6.634;2023-03-01T14:17:47;8.20;99.90
12959;DHT22;6544;51.666;6.634;2023-03-01T14:20:19;8.30;99.90
12959;DHT22;6544;51.666;6.634;2023-03-01T14:22:49;8.10;99.90
12959;DHT22;6544;51.666;6.634;2023-03-01T14:25:21;7.90;99.90
12959;DHT22;6544;51.666;6.634;2023-03-01T14:27:56;8.00;99.90
12959;DHT22;6544;51.666;6.634;2023-03-01T14:30:25;8.10;99.90
12959;DHT22;6544;51.666;6.634;2023-03-01T14:32:54;7.90;99.90
12959;DHT22;6544;51.666;6.634;2023-03-01T14:35:24;7.70;99.90
12959;DHT22;6544;51.666;6.634;2023-03-01T14:37:53;7.60;99.90
12959;DHT22;6544;51.666;6.634;2023-03-01T14:40:26;7.70;99.90
12959;DHT22;6544;51.666;6.634;2023-03-01T14:42:54;7.80;99.90
12959;DHT22;6544;51.666;6.634;2023-03-01T14:45:25;7.60;99.90
12959;DHT22;6544;51.666;6.634;2023-03-01T14:47:53;7.50;99.90
12959;DHT22;6544;51.666;6.634;2023-03-01T14:50:26;7.40;99.90
12959;DHT22;6544;51.666;6.634;2023-03-01T14:52:58;7.40;99.90
12959;DHT22;6544;51.666;6.634;2023-03-01T14:55:28;7.20;99.90
12959;DHT22;6544;51.666;6.634;2023-03-01T14:57:56;7.20;99.90
12959;DHT22;6544;51.666;6.634;2023-03-01T15:00:26;7.10;99.90
12959;DHT22;6544;51.666;6.634;2023-03-01T15:02:54;7.40;99.90
12959;DHT22;6544;51.666;6.634;2023-03-01T15:05:26;7.40;99.90
12959;DHT22;6544;51.666;6.634;2023-03-01T15:07:57;7.50;99.90
12959;DHT22;6544;51.666;6.634;2023-03-01T15:10:28;7.40;99.90
12959;DHT22;6544;51.666;6.634;2023-03-01T15:12:55;7.40;99.90
12959;DHT22;6544;51.666;6.634;2023-03-01T15:15:38;7.40;99.90
12959;DHT22;6544;51.666;6.634;2023-03-01T15:18:16;7.50;99.90
12959;DHT22;6544;51.666;6.634;2023-03-01T15:20:44;7.50;99.90
12959;DHT22;6544;51.666;6.634;2023-03-01T15:23:21;7.50;99.90
12959;DHT22;6544;51.666;6.634;2023-03-01T15:25:49;7.40;99.90
12959;DHT22;6544;51.666;6.634;2023-03-01T15:28:23;7.40;99.90
12959;DHT22;6544;51.666;6.634;2023-03-01T15:30:54;7.50;99.90
12959;DHT22;6544;51.666;6.634;2023-03-01T15:33:31;7.30;99.90
12959;DHT22;6544;51.666;6.634;2023-03-01T15:35:59;7.30;99.90
12959;DHT22;6544;51.666;6.634;2023-03-01T15:38:31;7.30;99.90
12959;DHT22;6544;51.666;6.634;2023-03-01T15:41:00;7.20;99.90
12959;DHT22;6544;51.666;6.634;2023-03-01T15:43:43;7.30;99.90
12959;DHT22;6544;51.666;6.634;2023-03-01T15:46:18;7.10;99.90
12959;DHT22;6544;51.666;6.634;2023-03-01T15:48:48;7.10;99.90
12959;DHT22;6544;51.666;6.634;2023-03-01T15:51:16;7.20;99.90
12959;DHT22;6544;51.666;6.634;2023-03-01T15:53:50;7.20;99.90
12959;DHT22;6544;51.666;6.634;2023-03-01T15:56:17;7.30;99.90
12959;DHT22;6544;51.666;6.634;2023-03-01T15:58:44;7.30;99.90
12959;DHT22;6544;51.666;6.634;2023-03-01T16:01:13;7.30;99.90
12959;DHT22;6544;51.666;6.634;2023-03-01T16:03:41;7.20;99.90
12959;DHT22;6544;51.666;6.634;2023-03-01T16:06:09;7.20;99.90
12959;DHT22;6544;51.666;6.634;2023-03-01T16:08:36;7.10;99.90
12959;DHT22;6544;51.666;6.634;2023-03-01T16:11:05;7.10;99.90
12959;DHT22;6544;51.666;6.634;2023-03-01T16:13:36;7.00;99.90
12959;DHT22;6544;51.666;6.634;2023-03-01T16:16:03;7.00;99.90
12959;DHT22;6544;51.666;6.634;2023-03-01T16:18:30;7.00;99.90
12959;DHT22;6544;51.666;6.634;2023-03-01T16:20:57;7.10;99.90
12959;DHT22;6544;51.666;6.634;2023-03-01T16:23:24;7.00;99.90
12959;DHT22;6544;51.666;6.634;2023-03-01T16:25:51;7.00;99.90
12959;DHT22;6544;51.666;6.634;2023-03-01T16:28:20;7.00;99.90
12959;DHT22;6544;51.666;6.634;2023-03-01T16:30:47;7.00;99.90
12959;DHT22;6544;51.666;6.634;2023-03-01T16:33:14;7.00;99.90
12959;DHT22;6544;51.666;6.634;2023-03-01T16:35:41;6.80;99.90
12959;DHT22;6544;51.666;6.634;2023-03-01T16:38:09;6.80;99.90
12959;DHT22;6544;51.666;6.634;2023-03-01T16:40:36;6.90;99.90
12959;DHT22;6544;51.666;6.634;2023-03-01T16:43:03;6.80;99.90
12959;DHT22;6544;51.666;6.634;2023-03-01T16:45:34;6.80;99.90
12959;DHT22;6544;51.666;6.634;2023-03-01T16:48:02;6.70;99.90
12959;DHT22;6544;51.666;6.634;2023-03-01T16:50:29;6.70;99.90